Time;durP1;ratioP1;P1;durP2;ratioP2;P2;SDS_P1;SDS_P2;PMS_P1;PMS_P2;Temp;Humidity;BMP_temperature;BMP_pressure;BME280_temperature;BME280_humidity;BME280_pressure;Samples;Min_cycle;Max_cycle;Signal;HPM_P1;HPM_P2
2021/12/11 00:00:35;;;;;;;7.57;3.75;;;;;;;;;;5088594;28;20052;-78
2021/12/11 00:03:07;;;;;;;11.07;4.40;;;;;;;;;;5090134;28;20146;-77
2021/12/11 00:05:35;;;;;;;7.45;3.72;;;;;;;;;;5089726;28;20098;-75
2021/12/11 00:08:01;;;;;;;8.55;3.40;;;;;;;;;;5089095;28;20405;-75
2021/12/11 00:10:33;;;;;;;7.10;3.72;;;;;;;;;;5071544;28;20055;-74
2021/12/11 00:13:01;;;;;;;7.10;3.30;;;;;;;;;;5071573;28;20078;-74
2021/12/11 00:15:30;;;;;;;6.22;3.72;;;;;;;;;;5089561;28;20041;-74
2021/12/11 00:18:06;;;;;;;7.72;3.65;;;;;;;;;;5088167;28;20081;-74
2021/12/11 00:20:34;;;;;;;7.97;4.00;;;;;;;;;;5087704;28;20051;-74
2021/12/11 00:23:00;;;;;;;5.10;3.20;;;;;;;;;;5089781;28;20044;-74
2021/12/11 00:25:27;;;;;;;7.20;4.05;;;;;;;;;;5089283;28;20077;-76
2021/12/11 00:28:00;;;;;;;5.40;3.53;;;;;;;;;;5089308;28;20181;-74
2021/12/11 00:30:28;;;;;;;5.38;3.20;;;;;;;;;;5070356;28;20094;-74
2021/12/11 00:33:02;;;;;;;8.10;3.17;;;;;;;;;;5088180;28;20051;-75
2021/12/11 00:35:28;;;;;;;6.88;3.33;;;;;;;;;;5070627;28;20100;-75
2021/12/11 00:38:00;;;;;;;6.10;3.50;;;;;;;;;;5089029;28;20340;-75
2021/12/11 00:40:26;;;;;;;6.30;3.80;;;;;;;;;;5088803;28;20040;-74
2021/12/11 00:42:56;;;;;;;6.50;3.80;;;;;;;;;;5088443;28;20138;-74
2021/12/11 00:45:24;;;;;;;5.13;3.10;;;;;;;;;;5089350;28;20394;-74
2021/12/11 00:47:51;;;;;;;6.30;3.63;;;;;;;;;;5089430;28;20138;-74
2021/12/11 00:50:19;;;;;;;4.95;3.15;;;;;;;;;;5089407;28;20044;-74
2021/12/11 00:52:50;;;;;;;7.00;3.28;;;;;;;;;;5088461;28;20044;-74
2021/12/11 00:55:18;;;;;;;6.40;3.60;;;;;;;;;;5088931;28;20494;-75
2021/12/11 00:57:45;;;;;;;4.90;3.13;;;;;;;;;;5089399;28;20040;-75
2021/12/11 01:00:13;;;;;;;7.55;3.33;;;;;;;;;;5088121;28;20087;-75
2021/12/11 01:02:40;;;;;;;6.70;3.85;;;;;;;;;;5089169;28;20044;-74
2021/12/11 01:05:10;;;;;;;5.32;3.00;;;;;;;;;;5089848;28;20405;-75
2021/12/11 01:07:37;;;;;;;6.28;3.20;;;;;;;;;;5087797;28;20075;-74
2021/12/11 01:10:23;;;;;;;6.28;3.38;;;;;;;;;;5087971;28;20113;-74
2021/12/11 01:12:55;;;;;;;5.57;3.55;;;;;;;;;;5089163;28;20051;-75
2021/12/11 01:15:25;;;;;;;6.35;3.10;;;;;;;;;;5088200;28;20055;-75
2021/12/11 01:18:21;;;;;;;4.88;3.38;;;;;;;;;;5087524;28;20576;-74
2021/12/11 01:21:03;;;;;;;6.55;3.03;;;;;;;;;;5088028;28;20525;-75
2021/12/11 01:26:02;;;;;;;4.63;3.03;;;;;;;;;;5087755;28;20087;-75
2021/12/11 01:28:28;;;;;;;5.25;3.47;;;;;;;;;;5087672;28;20378;-75
2021/12/11 01:30:54;;;;;;;3.97;2.90;;;;;;;;;;5088894;28;20086;-75
2021/12/11 01:33:20;;;;;;;6.88;3.08;;;;;;;;;;5087572;28;20039;-75
2021/12/11 01:35:47;;;;;;;6.38;3.10;;;;;;;;;;5088635;28;20130;-75
2021/12/11 01:38:13;;;;;;;6.18;3.20;;;;;;;;;;5089479;28;20123;-75
2021/12/11 01:40:40;;;;;;;4.85;3.08;;;;;;;;;;5088999;28;20101;-75
2021/12/11 01:43:07;;;;;;;5.95;3.10;;;;;;;;;;5087417;28;20494;-75
2021/12/11 01:45:34;;;;;;;5.18;3.05;;;;;;;;;;5070402;28;20398;-75
2021/12/11 01:48:01;;;;;;;4.95;3.63;;;;;;;;;;5088720;28;20092;-73
2021/12/11 01:50:32;;;;;;;5.55;2.97;;;;;;;;;;5088322;28;20416;-74
2021/12/11 01:53:01;;;;;;;5.15;2.90;;;;;;;;;;5087560;28;20398;-74
2021/12/11 01:55:29;;;;;;;5.35;2.78;;;;;;;;;;5088316;28;20108;-76
2021/12/11 01:57:56;;;;;;;7.63;2.97;;;;;;;;;;5086806;28;20170;-74
2021/12/11 02:00:32;;;;;;;6.07;3.40;;;;;;;;;;5086490;28;20048;-74
2021/12/11 02:02:59;;;;;;;5.10;2.80;;;;;;;;;;5087956;28;20087;-74
2021/12/11 02:05:27;;;;;;;7.05;3.30;;;;;;;;;;5086881;28;20541;-73
2021/12/11 02:07:55;;;;;;;7.38;3.28;;;;;;;;;;5087155;28;20047;-74
2021/12/11 02:10:24;;;;;;;4.72;3.20;;;;;;;;;;5069609;28;20093;-73
2021/12/11 02:12:50;;;;;;;4.80;3.13;;;;;;;;;;5087340;28;20048;-73
2021/12/11 02:15:19;;;;;;;4.50;3.05;;;;;;;;;;5087686;28;20443;-73
2021/12/11 02:17:52;;;;;;;4.53;3.03;;;;;;;;;;5086506;28;20055;-74
2021/12/11 02:20:26;;;;;;;4.15;2.90;;;;;;;;;;5087238;28;20089;-73
2021/12/11 02:22:52;;;;;;;4.82;2.72;;;;;;;;;;5086567;28;20071;-73
2021/12/11 02:25:24;;;;;;;4.40;2.80;;;;;;;;;;5090037;28;20044;-74
2021/12/11 02:27:56;;;;;;;5.97;2.80;;;;;;;;;;5091783;28;20052;-73
2021/12/11 02:30:23;;;;;;;5.15;2.72;;;;;;;;;;5090650;28;20414;-73
2021/12/11 02:33:03;;;;;;;4.97;3.00;;;;;;;;;;5091426;28;20052;-73
2021/12/11 02:35:56;;;;;;;3.80;2.50;;;;;;;;;;5090524;28;20048;-73
2021/12/11 02:38:39;;;;;;;4.97;3.17;;;;;;;;;;5075426;28;20048;-73
2021/12/11 02:41:08;;;;;;;4.35;3.08;;;;;;;;;;5090451;28;20239;-73
2021/12/11 02:43:40;;;;;;;4.20;2.90;;;;;;;;;;5090429;28;20084;-73
2021/12/11 02:46:09;;;;;;;4.55;3.00;;;;;;;;;;5089642;28;20051;-73
2021/12/11 02:48:40;;;;;;;4.82;2.90;;;;;;;;;;5090002;28;20044;-73
2021/12/11 02:51:13;;;;;;;4.28;2.95;;;;;;;;;;5090067;28;20079;-73
2021/12/11 02:53:42;;;;;;;4.30;2.80;;;;;;;;;;5090007;28;20044;-73
2021/12/11 02:56:08;;;;;;;4.93;2.92;;;;;;;;;;5073951;28;20044;-77
2021/12/11 02:58:36;;;;;;;6.18;3.22;;;;;;;;;;5091779;28;20044;-77
2021/12/11 03:01:06;;;;;;;6.90;2.90;;;;;;;;;;5090133;28;20044;-73
2021/12/11 03:03:34;;;;;;;;;;;;;;;;;;5091099;28;20293;-73
2021/12/11 03:06:07;;;;;;;5.25;3.03;;;;;;;;;;5090758;28;19920;-73
2021/12/11 03:08:33;;;;;;;4.88;2.75;;;;;;;;;;5073351;28;20063;-74
2021/12/11 03:11:02;;;;;;;3.90;2.63;;;;;;;;;;5090313;28;20383;-75
2021/12/11 03:13:33;;;;;;;4.40;2.90;;;;;;;;;;5073308;28;20565;-75
2021/12/11 03:16:00;;;;;;;5.20;3.10;;;;;;;;;;5090468;28;20044;-76
2021/12/11 03:18:28;;;;;;;6.15;3.10;;;;;;;;;;5089856;28;20060;-74
2021/12/11 03:20:54;;;;;;;4.43;2.67;;;;;;;;;;5073845;28;20040;-75
2021/12/11 03:23:21;;;;;;;5.05;2.70;;;;;;;;;;5091168;28;20106;-75
2021/12/11 03:25:48;;;;;;;4.25;2.60;;;;;;;;;;5090151;28;20365;-75
2021/12/11 03:28:15;;;;;;;4.45;2.90;;;;;;;;;;5089712;28;20040;-75
2021/12/11 03:30:44;;;;;;;3.67;2.42;;;;;;;;;;5091228;28;20278;-76
2021/12/11 03:33:14;;;;;;;4.75;2.60;;;;;;;;;;5091118;28;20059;-75
2021/12/11 03:35:41;;;;;;;5.82;3.63;;;;;;;;;;5090535;28;20044;-75
2021/12/11 03:38:07;;;;;;;4.25;2.70;;;;;;;;;;5090931;28;20039;-75
2021/12/11 03:40:34;;;;;;;4.25;2.40;;;;;;;;;;5089569;28;20051;-75
2021/12/11 03:43:01;;;;;;;6.10;3.05;;;;;;;;;;5090339;28;20043;-73
2021/12/11 03:45:30;;;;;;;4.93;2.70;;;;;;;;;;5090882;28;20051;-74
2021/12/11 03:47:58;;;;;;;5.03;2.60;;;;;;;;;;5089021;28;20048;-74
2021/12/11 03:50:26;;;;;;;4.95;2.80;;;;;;;;;;5089991;28;20059;-73
2021/12/11 03:52:53;;;;;;;5.50;2.90;;;;;;;;;;5090371;28;20047;-75
2021/12/11 03:55:23;;;;;;;6.80;2.75;;;;;;;;;;5088704;28;20510;-76
2021/12/11 03:57:55;;;;;;;5.55;2.50;;;;;;;;;;5090615;28;20043;-74
2021/12/11 04:00:22;;;;;;;4.65;2.60;;;;;;;;;;5072032;28;20408;-74
2021/12/11 04:02:49;;;;;;;4.30;2.60;;;;;;;;;;5089745;28;20044;-74
2021/12/11 04:05:16;;;;;;;4.25;2.80;;;;;;;;;;5071831;28;20565;-75
2021/12/11 04:07:44;;;;;;;5.05;2.40;;;;;;;;;;5088380;28;20517;-75
2021/12/11 04:10:14;;;;;;;7.22;2.70;;;;;;;;;;5090100;28;20048;-75
2021/12/11 04:12:40;;;;;;;5.45;2.80;;;;;;;;;;5089903;28;20040;-75
2021/12/11 04:15:07;;;;;;;5.05;2.78;;;;;;;;;;5088588;28;20181;-76
2021/12/11 04:17:33;;;;;;;4.78;2.85;;;;;;;;;;5089150;28;20132;-76
2021/12/11 04:20:01;;;;;;;5.38;2.50;;;;;;;;;;5088629;28;20048;-75
2021/12/11 04:22:27;;;;;;;10.60;2.72;;;;;;;;;;5071656;28;20486;-74
2021/12/11 04:24:53;;;;;;;3.78;2.22;;;;;;;;;;5090310;28;20131;-76
2021/12/11 04:27:20;;;;;;;4.45;2.80;;;;;;;;;;5088680;28;20044;-76
2021/12/11 04:29:49;;;;;;;5.53;2.50;;;;;;;;;;5088650;28;20494;-75
2021/12/11 04:32:17;;;;;;;4.45;2.50;;;;;;;;;;5088822;28;20052;-76
2021/12/11 04:34:43;;;;;;;4.82;2.40;;;;;;;;;;5071786;28;20046;-76
2021/12/11 04:37:14;;;;;;;3.60;2.10;;;;;;;;;;5089444;28;20718;-76
2021/12/11 04:39:41;;;;;;;3.45;2.30;;;;;;;;;;5088786;28;20074;-76
2021/12/11 04:42:59;;;;;;;4.22;2.60;;;;;;;;;;5088750;28;20448;-74
2021/12/11 04:45:01;;;;;;;3.80;2.65;;;;;;;;;;5086406;28;20052;-74
2021/12/11 04:47:45;;;;;;;3.78;2.53;;;;;;;;;;5088791;28;20440;-74
2021/12/11 04:50:30;;;;;;;4.22;2.28;;;;;;;;;;5089628;28;20044;-74
2021/12/11 04:52:58;;;;;;;4.05;2.53;;;;;;;;;;5089983;28;20062;-78
2021/12/11 04:55:49;;;;;;;4.15;2.42;;;;;;;;;;5088669;28;20421;-77
2021/12/11 05:11:17;;;;;;;4.47;2.60;;;;;;;;;;5087701;28;20058;-77
2021/12/11 05:13:43;;;;;;;;;;;;;;;;;;5071616;28;20482;-77
2021/12/11 05:16:13;;;;;;;4.70;2.13;;;;;;;;;;5087752;28;19981;-77
2021/12/11 05:18:42;;;;;;;5.63;2.78;;;;;;;;;;5088179;28;20475;-76
2021/12/11 05:21:10;;;;;;;5.22;2.50;;;;;;;;;;5089308;28;20047;-76
2021/12/11 05:23:36;;;;;;;5.38;2.70;;;;;;;;;;5089384;28;20056;-75
2021/12/11 05:26:03;;;;;;;5.25;2.40;;;;;;;;;;5087987;28;20048;-73
2021/12/11 05:28:29;;;;;;;8.18;3.00;;;;;;;;;;5089017;28;20048;-74
2021/12/11 05:30:56;;;;;;;5.30;2.42;;;;;;;;;;5089287;28;20051;-73
2021/12/11 05:33:22;;;;;;;4.85;2.60;;;;;;;;;;5088788;28;20052;-74
2021/12/11 05:35:49;;;;;;;5.00;2.67;;;;;;;;;;5087701;28;20338;-74
2021/12/11 05:38:16;;;;;;;5.53;2.53;;;;;;;;;;5071538;28;20426;-74
2021/12/11 05:40:45;;;;;;;5.43;2.80;;;;;;;;;;5087767;28;20040;-76
2021/12/11 05:43:11;;;;;;;5.93;2.50;;;;;;;;;;5087694;28;20056;-74
2021/12/11 05:45:39;;;;;;;4.15;2.55;;;;;;;;;;5088636;28;20048;-74
2021/12/11 05:48:06;;;;;;;5.45;2.50;;;;;;;;;;5089209;28;20056;-73
2021/12/11 05:50:34;;;;;;;4.20;2.63;;;;;;;;;;5089010;28;20067;-75
2021/12/11 05:53:02;;;;;;;9.47;2.70;;;;;;;;;;5088014;28;20036;-75
2021/12/11 05:55:30;;;;;;;5.63;2.50;;;;;;;;;;5086830;28;20044;-75
2021/12/11 05:57:58;;;;;;;6.22;2.58;;;;;;;;;;5087448;28;20059;-75
2021/12/11 06:00:30;;;;;;;5.78;2.20;;;;;;;;;;5091358;28;20079;-75
2021/12/11 06:02:56;;;;;;;5.78;2.30;;;;;;;;;;5074905;28;20048;-75
2021/12/11 06:05:22;;;;;;;4.97;2.40;;;;;;;;;;5074257;28;20116;-76
2021/12/11 06:07:48;;;;;;;3.30;2.40;;;;;;;;;;5091568;28;20040;-77
2021/12/11 06:10:16;;;;;;;6.20;2.42;;;;;;;;;;5091639;28;20350;-75
2021/12/11 06:12:43;;;;;;;3.58;2.20;;;;;;;;;;5090642;28;20051;-75
2021/12/11 06:15:10;;;;;;;6.88;2.60;;;;;;;;;;5091914;28;20402;-74
2021/12/11 06:17:36;;;;;;;4.47;2.72;;;;;;;;;;5073787;28;20048;-74
2021/12/11 06:20:07;;;;;;;6.97;2.80;;;;;;;;;;5091149;28;20081;-74
2021/12/11 06:22:35;;;;;;;6.38;2.55;;;;;;;;;;5092255;28;20061;-74
2021/12/11 06:25:03;;;;;;;5.47;2.97;;;;;;;;;;5091308;28;20130;-74
2021/12/11 06:27:30;;;;;;;8.80;2.33;;;;;;;;;;5073706;28;20040;-73
2021/12/11 06:29:56;;;;;;;3.55;2.40;;;;;;;;;;5074232;28;20153;-73
2021/12/11 06:32:24;;;;;;;5.95;2.20;;;;;;;;;;5091272;28;20036;-72
2021/12/11 06:34:51;;;;;;;4.40;2.40;;;;;;;;;;5074201;28;20131;-73
2021/12/11 06:37:20;;;;;;;4.93;2.50;;;;;;;;;;5091921;28;20085;-74
2021/12/11 06:39:46;;;;;;;3.25;2.22;;;;;;;;;;5091763;28;20048;-74
2021/12/11 06:42:12;;;;;;;6.88;2.30;;;;;;;;;;5074138;28;20366;-75
2021/12/11 06:44:38;;;;;;;3.35;2.25;;;;;;;;;;5090729;28;20486;-75
2021/12/11 06:47:09;;;;;;;3.63;2.35;;;;;;;;;;5092408;28;20051;-73
2021/12/11 06:49:36;;;;;;;4.57;2.63;;;;;;;;;;5072996;28;20052;-75
2021/12/11 06:52:04;;;;;;;4.75;3.13;;;;;;;;;;5090360;28;20489;-75
2021/12/11 06:54:30;;;;;;;4.72;2.55;;;;;;;;;;5072938;28;20520;-76
2021/12/11 06:56:56;;;;;;;3.80;2.35;;;;;;;;;;5089464;28;20135;-74
2021/12/11 06:59:23;;;;;;;3.80;2.22;;;;;;;;;;5072988;28;20602;-75
2021/12/11 07:01:49;;;;;;;3.78;2.28;;;;;;;;;;5073310;28;20405;-75
2021/12/11 07:04:15;;;;;;;3.63;2.13;;;;;;;;;;5091384;28;20112;-75
2021/12/11 07:06:43;;;;;;;2.85;2.03;;;;;;;;;;5089294;28;20153;-74
2021/12/11 07:09:10;;;;;;;4.20;2.28;;;;;;;;;;5073230;28;20060;-75
2021/12/11 07:11:39;;;;;;;8.10;2.00;;;;;;;;;;5090276;28;20095;-74
2021/12/11 07:14:06;;;;;;;6.87;2.53;;;;;;;;;;5090412;28;20055;-76
2021/12/11 07:16:32;;;;;;;4.35;2.40;;;;;;;;;;5089737;28;20664;-75
2021/12/11 07:18:58;;;;;;;3.33;2.15;;;;;;;;;;5091010;28;20582;-75
2021/12/11 07:21:24;;;;;;;3.50;1.92;;;;;;;;;;5090761;28;20075;-75
2021/12/11 07:23:50;;;;;;;4.38;2.42;;;;;;;;;;5089544;28;20409;-75
2021/12/11 07:26:23;;;;;;;4.07;2.20;;;;;;;;;;5090294;28;20482;-76
2021/12/11 07:28:51;;;;;;;3.60;2.20;;;;;;;;;;5089413;28;20044;-75
2021/12/11 07:31:17;;;;;;;3.08;2.10;;;;;;;;;;5089331;28;20109;-76
2021/12/11 07:33:43;;;;;;;6.13;2.28;;;;;;;;;;5090239;28;20050;-77
2021/12/11 07:36:09;;;;;;;9.60;2.83;;;;;;;;;;5090568;28;20158;-74
2021/12/11 07:38:35;;;;;;;5.32;2.30;;;;;;;;;;5088993;28;20048;-73
2021/12/11 07:41:04;;;;;;;3.55;2.00;;;;;;;;;;5088909;28;20040;-72
2021/12/11 07:43:31;;;;;;;3.20;2.22;;;;;;;;;;5090113;28;20479;-72
2021/12/11 07:45:59;;;;;;;4.57;2.38;;;;;;;;;;5090235;28;20104;-72
2021/12/11 07:48:25;;;;;;;3.65;2.40;;;;;;;;;;5090362;28;20409;-71
2021/12/11 07:50:51;;;;;;;3.63;2.22;;;;;;;;;;5088381;28;20055;-72
2021/12/11 07:53:18;;;;;;;5.60;2.08;;;;;;;;;;5089298;28;20052;-73
2021/12/11 07:55:45;;;;;;;5.40;2.50;;;;;;;;;;5072049;28;20044;-71
2021/12/11 07:58:11;;;;;;;3.88;2.10;;;;;;;;;;5072118;28;20040;-72
2021/12/11 08:00:39;;;;;;;3.30;2.00;;;;;;;;;;5088539;28;20062;-72
2021/12/11 08:03:05;;;;;;;3.25;2.10;;;;;;;;;;5089790;28;20410;-71
2021/12/11 08:05:32;;;;;;;4.15;2.30;;;;;;;;;;5089455;28;20040;-71
2021/12/11 08:08:02;;;;;;;5.38;2.20;;;;;;;;;;5071798;28;20555;-74
2021/12/11 08:10:29;;;;;;;4.75;2.20;;;;;;;;;;5088728;28;20135;-75
2021/12/11 08:12:55;;;;;;;16.98;2.75;;;;;;;;;;5088285;28;20550;-73
2021/12/11 08:15:21;;;;;;;5.25;2.38;;;;;;;;;;5071622;28;20596;-72
2021/12/11 08:17:54;;;;;;;7.57;2.58;;;;;;;;;;5088399;28;20493;-73
2021/12/11 08:20:20;;;;;;;7.03;2.78;;;;;;;;;;5088048;28;20055;-74
2021/12/11 08:22:46;;;;;;;5.13;2.42;;;;;;;;;;5090311;28;20044;-74
2021/12/11 08:25:13;;;;;;;5.32;2.55;;;;;;;;;;5090026;28;20047;-75
2021/12/11 08:27:39;;;;;;;9.38;2.35;;;;;;;;;;5088857;28;20090;-74
2021/12/11 08:30:08;;;;;;;4.78;2.53;;;;;;;;;;5089898;28;20139;-74
2021/12/11 08:32:34;;;;;;;6.45;2.90;;;;;;;;;;5089296;28;20393;-75
2021/12/11 08:35:00;;;;;;;5.95;2.60;;;;;;;;;;5071831;28;20497;-75
2021/12/11 08:37:26;;;;;;;5.70;2.50;;;;;;;;;;5089386;28;20040;-76
2021/12/11 08:39:53;;;;;;;4.03;2.00;;;;;;;;;;5087445;28;20097;-75
2021/12/11 08:42:23;;;;;;;6.53;2.65;;;;;;;;;;5072228;28;20051;-77
2021/12/11 08:44:52;;;;;;;;;;;;;;;;;;5088353;28;20406;-78
2021/12/11 08:47:19;;;;;;;4.28;2.53;;;;;;;;;;5090008;28;19927;-74
2021/12/11 08:49:45;;;;;;;3.28;2.35;;;;;;;;;;5089636;28;20124;-76
2021/12/11 08:52:20;;;;;;;5.32;2.30;;;;;;;;;;5085352;28;20048;-76
2021/12/11 08:54:46;;;;;;;4.00;2.22;;;;;;;;;;5089469;28;20044;-76
2021/12/11 08:57:15;;;;;;;4.68;2.40;;;;;;;;;;5071675;28;20076;-77
2021/12/11 08:59:46;;;;;;;3.40;2.30;;;;;;;;;;5089615;28;20516;-76
2021/12/11 09:02:21;;;;;;;4.22;2.35;;;;;;;;;;5088707;28;20429;-76
2021/12/11 09:04:58;;;;;;;4.90;2.42;;;;;;;;;;5088535;28;20089;-75
2021/12/11 09:07:31;;;;;;;4.35;2.47;;;;;;;;;;5088086;28;20513;-76
2021/12/11 09:10:05;;;;;;;3.78;2.42;;;;;;;;;;5088291;28;20567;-76
2021/12/11 09:12:35;;;;;;;4.57;2.55;;;;;;;;;;5088066;28;20105;-76
2021/12/11 09:15:01;;;;;;;;;;;;;;;;;;5089441;28;20074;-75
2021/12/11 09:17:33;;;;;;;3.83;2.45;;;;;;;;;;5088198;28;19920;-74
2021/12/11 09:20:01;;;;;;;4.15;2.45;;;;;;;;;;5089530;28;20073;-76
2021/12/11 09:22:36;;;;;;;3.63;2.00;;;;;;;;;;5088057;28;20050;-77
2021/12/11 09:25:08;;;;;;;3.80;2.53;;;;;;;;;;5088118;28;20044;-78
2021/12/11 09:27:37;;;;;;;3.58;2.42;;;;;;;;;;5087566;28;20051;-75
2021/12/11 09:30:16;;;;;;;4.25;2.60;;;;;;;;;;5087306;28;20044;-76
2021/12/11 09:32:48;;;;;;;4.25;2.38;;;;;;;;;;5084734;28;20048;-77
2021/12/11 09:35:21;;;;;;;4.15;2.65;;;;;;;;;;5070675;28;20048;-77
2021/12/11 09:37:48;;;;;;;4.97;2.42;;;;;;;;;;5088752;28;20048;-76
2021/12/11 09:40:21;;;;;;;3.83;2.70;;;;;;;;;;5088115;28;20047;-77
2021/12/11 09:42:47;;;;;;;4.13;2.63;;;;;;;;;;5088198;28;20040;-76
2021/12/11 09:45:18;;;;;;;4.65;2.65;;;;;;;;;;5088046;28;20657;-74
2021/12/11 09:47:51;;;;;;;3.83;2.60;;;;;;;;;;5087960;28;20123;-76
2021/12/11 09:50:22;;;;;;;4.57;2.92;;;;;;;;;;5087109;28;20044;-76
2021/12/11 09:52:49;;;;;;;5.15;2.90;;;;;;;;;;5084121;28;20499;-77
2021/12/11 09:55:19;;;;;;;4.53;3.10;;;;;;;;;;5084363;28;20036;-76
2021/12/11 09:57:48;;;;;;;4.25;3.20;;;;;;;;;;5068334;28;20573;-76
2021/12/11 10:00:17;;;;;;;4.97;3.40;;;;;;;;;;5084866;28;20074;-75
2021/12/11 10:02:43;;;;;;;4.53;3.13;;;;;;;;;;5087905;28;20044;-75
2021/12/11 10:05:31;;;;;;;7.03;3.55;;;;;;;;;;5088262;28;20384;-78
2021/12/11 10:10:44;;;;;;;7.00;4.40;;;;;;;;;;5088373;28;20078;-75
2021/12/11 10:13:10;;;;;;;6.55;4.53;;;;;;;;;;5088537;28;20052;-75
2021/12/11 10:15:39;;;;;;;9.52;4.97;;;;;;;;;;5087236;28;20146;-76
2021/12/11 10:18:13;;;;;;;6.57;4.03;;;;;;;;;;5088400;28;20141;-75
2021/12/11 10:20:39;;;;;;;8.10;4.65;;;;;;;;;;5089074;28;20055;-76
2021/12/11 10:23:07;;;;;;;7.90;4.28;;;;;;;;;;5070482;28;20048;-75
2021/12/11 10:25:35;;;;;;;5.97;3.75;;;;;;;;;;5088728;28;20161;-75
2021/12/11 10:28:12;;;;;;;7.25;4.07;;;;;;;;;;5070317;28;20044;-74
2021/12/11 10:30:46;;;;;;;6.25;4.05;;;;;;;;;;5088627;28;20135;-74
2021/12/11 10:33:13;;;;;;;6.43;3.63;;;;;;;;;;5087648;28;20048;-74
2021/12/11 10:35:44;;;;;;;5.45;3.75;;;;;;;;;;5087607;28;20513;-76
2021/12/11 10:38:10;;;;;;;6.88;4.05;;;;;;;;;;5089139;28;20047;-75
2021/12/11 10:40:41;;;;;;;6.95;4.32;;;;;;;;;;5087290;28;20051;-75
2021/12/11 10:43:10;;;;;;;5.38;3.30;;;;;;;;;;5088652;28;20501;-74
2021/12/11 10:45:36;;;;;;;10.47;3.87;;;;;;;;;;5089181;28;20083;-74
2021/12/11 10:48:05;;;;;;;5.97;3.70;;;;;;;;;;5089482;28;20122;-76
2021/12/11 10:50:31;;;;;;;7.03;3.43;;;;;;;;;;5089574;28;20044;-76
2021/12/11 10:52:58;;;;;;;6.72;3.83;;;;;;;;;;5092100;28;20062;-77
2021/12/11 10:55:26;;;;;;;7.78;3.53;;;;;;;;;;5091455;28;20047;-74
2021/12/11 10:57:55;;;;;;;7.05;4.07;;;;;;;;;;5091688;28;20567;-77
2021/12/11 11:00:28;;;;;;;8.40;3.75;;;;;;;;;;5089878;28;20050;-74
2021/12/11 11:02:54;;;;;;;10.18;3.95;;;;;;;;;;5091755;28;20047;-77
2021/12/11 11:05:22;;;;;;;11.75;3.50;;;;;;;;;;5090849;28;20071;-77
2021/12/11 11:07:48;;;;;;;10.63;3.30;;;;;;;;;;5089512;28;21109;-76
2021/12/11 11:10:26;;;;;;;16.48;3.55;;;;;;;;;;5090316;28;20055;-74
2021/12/11 11:12:53;;;;;;;8.90;3.90;;;;;;;;;;5090507;28;20044;-75
2021/12/11 11:15:21;;;;;;;7.63;3.30;;;;;;;;;;5091791;28;20107;-74
2021/12/11 11:17:47;;;;;;;10.98;3.58;;;;;;;;;;5089888;28;20520;-74
2021/12/11 11:20:17;;;;;;;10.25;3.42;;;;;;;;;;5090850;28;20040;-74
2021/12/11 11:22:44;;;;;;;14.55;3.10;;;;;;;;;;5090184;28;20101;-73
2021/12/11 11:25:16;;;;;;;9.02;2.97;;;;;;;;;;5090677;28;20055;-74
2021/12/11 11:27:44;;;;;;;10.18;3.47;;;;;;;;;;5089129;28;20062;-81
2021/12/11 11:30:13;;;;;;;8.63;3.15;;;;;;;;;;5089692;28;20055;-75
2021/12/11 11:32:39;;;;;;;8.57;3.17;;;;;;;;;;5089089;28;20044;-74
2021/12/11 11:35:08;;;;;;;11.50;3.35;;;;;;;;;;5091205;28;20394;-74
2021/12/11 11:37:35;;;;;;;12.98;4.35;;;;;;;;;;5072969;28;20050;-74
2021/12/11 11:40:04;;;;;;;9.95;3.67;;;;;;;;;;5090013;28;20071;-74
2021/12/11 11:42:30;;;;;;;8.73;3.50;;;;;;;;;;5072960;28;20090;-74
2021/12/11 11:44:56;;;;;;;9.18;3.22;;;;;;;;;;5089680;28;20040;-71
2021/12/11 11:47:22;;;;;;;9.95;3.40;;;;;;;;;;5090636;28;20048;-74
2021/12/11 11:49:49;;;;;;;9.88;2.88;;;;;;;;;;5090681;28;20035;-70
2021/12/11 11:52:17;;;;;;;12.45;3.95;;;;;;;;;;5090571;28;20105;-72
2021/12/11 11:54:46;;;;;;;11.23;3.17;;;;;;;;;;5089751;28;20048;-72
2021/12/11 11:57:18;;;;;;;6.68;2.80;;;;;;;;;;5088960;28;20040;-72
2021/12/11 11:59:44;;;;;;;9.48;2.80;;;;;;;;;;5068790;28;20395;-72
2021/12/11 12:02:17;;;;;;;6.00;2.42;;;;;;;;;;5070871;28;20040;-72
2021/12/11 12:04:44;;;;;;;6.40;2.90;;;;;;;;;;5069317;28;20048;-72
2021/12/11 12:07:10;;;;;;;6.97;2.83;;;;;;;;;;5068796;28;20115;-71
2021/12/11 12:09:48;;;;;;;6.40;2.55;;;;;;;;;;5052443;28;20068;-71
2021/12/11 12:12:15;;;;;;;12.55;3.05;;;;;;;;;;5072430;28;20052;-71
2021/12/11 12:14:42;;;;;;;4.90;2.20;;;;;;;;;;5090399;28;20066;-71
2021/12/11 12:17:10;;;;;;;5.68;2.55;;;;;;;;;;5088033;28;20451;-71
2021/12/11 12:19:37;;;;;;;9.32;2.67;;;;;;;;;;5088443;28;20052;-71
2021/12/11 12:22:04;;;;;;;9.13;2.40;;;;;;;;;;5090524;28;20058;-71
2021/12/11 12:24:32;;;;;;;6.07;2.40;;;;;;;;;;5090252;28;20040;-72
2021/12/11 12:26:59;;;;;;;5.65;2.25;;;;;;;;;;5090621;28;20059;-71
2021/12/11 12:29:26;;;;;;;6.95;2.03;;;;;;;;;;5088669;28;20043;-72
2021/12/11 12:32:01;;;;;;;5.07;2.60;;;;;;;;;;5088046;28;20131;-71
2021/12/11 12:34:28;;;;;;;6.78;2.33;;;;;;;;;;5090002;28;20059;-72
2021/12/11 12:36:55;;;;;;;5.03;2.25;;;;;;;;;;5087963;28;20443;-73
2021/12/11 12:39:24;;;;;;;7.40;2.55;;;;;;;;;;5067889;28;20044;-72
2021/12/11 12:42:03;;;;;;;3.47;2.13;;;;;;;;;;5051187;28;20400;-72
2021/12/11 12:44:30;;;;;;;4.80;2.53;;;;;;;;;;5068669;28;20050;-72
2021/12/11 12:46:59;;;;;;;5.30;2.38;;;;;;;;;;5068862;28;20059;-72
2021/12/11 12:49:32;;;;;;;5.05;2.55;;;;;;;;;;5053794;28;20047;-72
2021/12/11 12:52:03;;;;;;;7.20;2.75;;;;;;;;;;5087678;28;20063;-72
2021/12/11 12:54:30;;;;;;;4.57;2.10;;;;;;;;;;5089919;28;20054;-72
2021/12/11 12:57:17;;;;;;;5.57;2.30;;;;;;;;;;5090030;28;20579;-72
2021/12/11 12:59:47;;;;;;;4.88;1.95;;;;;;;;;;5088450;28;20060;-72
2021/12/11 13:02:17;;;;;;;5.95;2.40;;;;;;;;;;5088617;28;20055;-72
2021/12/11 13:04:46;;;;;;;7.35;2.38;;;;;;;;;;5088021;28;20051;-72
2021/12/11 13:07:14;;;;;;;4.20;1.67;;;;;;;;;;5071276;28;20036;-72
2021/12/11 13:09:45;;;;;;;4.03;1.95;;;;;;;;;;5087015;28;20092;-72
2021/12/11 13:12:21;;;;;;;4.88;2.00;;;;;;;;;;5088313;28;20102;-72
2021/12/11 13:14:49;;;;;;;4.03;2.28;;;;;;;;;;5087948;28;20052;-72
2021/12/11 13:17:21;;;;;;;5.32;2.13;;;;;;;;;;5071867;28;20044;-72
2021/12/11 13:19:49;;;;;;;6.03;2.20;;;;;;;;;;5089058;28;20405;-72
2021/12/11 13:22:23;;;;;;;4.43;1.90;;;;;;;;;;5089430;28;20044;-72
2021/12/11 13:24:52;;;;;;;2.88;1.90;;;;;;;;;;5088144;28;20044;-72
2021/12/11 13:27:20;;;;;;;3.50;2.05;;;;;;;;;;5087538;28;20052;-73
2021/12/11 13:29:50;;;;;;;5.07;1.85;;;;;;;;;;5087830;28;20076;-72
2021/12/11 13:32:17;;;;;;;6.00;2.40;;;;;;;;;;5087451;28;20052;-72
2021/12/11 13:34:47;;;;;;;5.20;1.95;;;;;;;;;;5088845;28;20043;-72
2021/12/11 13:37:13;;;;;;;;;;;;;;;;;;5088531;28;20199;-73
2021/12/11 13:39:39;;;;;;;3.88;1.80;;;;;;;;;;5087585;28;19999;-72
2021/12/11 13:42:07;;;;;;;5.65;1.85;;;;;;;;;;5087661;28;20101;-72
2021/12/11 13:44:43;;;;;;;4.03;1.80;;;;;;;;;;5070485;28;20048;-73
2021/12/11 13:47:12;;;;;;;3.53;1.80;;;;;;;;;;5089003;28;20048;-72
2021/12/11 13:49:38;;;;;;;2.83;1.70;;;;;;;;;;5088624;28;20055;-72
2021/12/11 13:52:05;;;;;;;2.63;1.52;;;;;;;;;;5087298;28;20052;-72
2021/12/11 13:54:31;;;;;;;3.85;1.58;;;;;;;;;;5086878;28;20052;-72
2021/12/11 13:57:00;;;;;;;4.60;1.77;;;;;;;;;;5087860;28;20575;-72
2021/12/11 13:59:26;;;;;;;3.65;1.80;;;;;;;;;;5087555;28;20106;-72
2021/12/11 14:01:54;;;;;;;3.05;1.52;;;;;;;;;;5088514;28;20141;-72
2021/12/11 14:04:22;;;;;;;3.25;1.90;;;;;;;;;;5088417;28;20036;-72
2021/12/11 14:06:58;;;;;;;4.15;1.95;;;;;;;;;;5087078;28;20048;-72
2021/12/11 14:09:25;;;;;;;3.03;1.73;;;;;;;;;;5088033;28;20139;-72
2021/12/11 14:11:52;;;;;;;3.03;1.70;;;;;;;;;;5087245;28;20044;-73
2021/12/11 14:14:19;;;;;;;5.30;1.85;;;;;;;;;;5087754;28;20044;-72
2021/12/11 14:16:47;;;;;;;3.15;1.70;;;;;;;;;;5069984;28;20048;-71
2021/12/11 14:19:14;;;;;;;3.17;1.70;;;;;;;;;;5086395;28;20048;-73
2021/12/11 14:21:40;;;;;;;2.97;1.58;;;;;;;;;;5091786;28;20040;-73
2021/12/11 14:24:07;;;;;;;3.33;1.85;;;;;;;;;;5092770;28;20040;-73
2021/12/11 14:26:34;;;;;;;3.03;1.70;;;;;;;;;;5090740;28;20044;-73
2021/12/11 14:29:01;;;;;;;3.25;1.60;;;;;;;;;;5091725;28;20541;-73
2021/12/11 14:31:28;;;;;;;4.03;1.80;;;;;;;;;;5090906;28;20460;-72
2021/12/11 14:33:55;;;;;;;3.53;1.77;;;;;;;;;;5092083;28;20050;-73
2021/12/11 14:36:22;;;;;;;3.83;1.70;;;;;;;;;;5091663;28;20135;-74
2021/12/11 14:38:50;;;;;;;3.47;2.20;;;;;;;;;;5091002;28;20052;-74
2021/12/11 14:41:16;;;;;;;5.80;2.00;;;;;;;;;;5091332;28;20048;-74
2021/12/11 14:43:43;;;;;;;5.32;2.55;;;;;;;;;;5091328;28;20463;-74
2021/12/11 14:46:10;;;;;;;5.78;3.03;;;;;;;;;;5090594;28;20040;-75
2021/12/11 14:48:37;;;;;;;6.35;3.30;;;;;;;;;;5090721;28;20097;-75
2021/12/11 14:51:08;;;;;;;5.68;2.95;;;;;;;;;;5073554;28;20051;-75
2021/12/11 14:53:36;;;;;;;7.18;3.30;;;;;;;;;;5090929;28;20036;-75
2021/12/11 14:56:13;;;;;;;6.88;3.13;;;;;;;;;;5092049;28;20051;-75
2021/12/11 14:58:40;;;;;;;8.15;4.07;;;;;;;;;;5091096;28;20048;-75
2021/12/11 15:01:09;;;;;;;6.72;4.03;;;;;;;;;;5092136;28;20090;-75
2021/12/11 15:03:35;;;;;;;7.30;3.78;;;;;;;;;;5091781;28;20409;-75
2021/12/11 15:06:02;;;;;;;6.80;3.50;;;;;;;;;;5091072;28;20135;-75
2021/12/11 15:08:29;;;;;;;7.38;3.92;;;;;;;;;;5090101;28;20059;-75
2021/12/11 15:11:00;;;;;;;7.93;4.15;;;;;;;;;;5091172;28;20055;-75